createdAt,value
2022-10-20T00:00:05.120Z,1014.38
2022-10-20T00:01:05.138Z,1014.36
2022-10-20T00:02:05.101Z,1014.35
2022-10-20T00:03:05.126Z,1014.28
2022-10-20T00:04:05.088Z,1014.27
2022-10-20T00:05:05.068Z,1014.25
2022-10-20T00:06:05.077Z,1014.27
2022-10-20T00:07:05.071Z,1014.27
2022-10-20T00:08:05.031Z,1014.26
2022-10-20T00:09:05.094Z,1014.27
2022-10-20T00:10:05.021Z,1014.25
2022-10-20T00:11:05.039Z,1014.15
2022-10-20T00:12:04.989Z,1014.19
2022-10-20T00:13:04.980Z,1014.18
2022-10-20T00:14:04.970Z,1014.14
2022-10-20T00:15:04.960Z,1014.21
2022-10-20T00:16:04.971Z,1014.20
2022-10-20T00:17:04.950Z,1014.28
2022-10-20T00:18:04.928Z,1014.25
2022-10-20T00:19:04.920Z,1014.24
2022-10-20T00:20:04.947Z,1014.28
2022-10-20T00:21:04.919Z,1014.28
2022-10-20T00:22:04.879Z,1014.23
2022-10-20T00:23:04.877Z,1014.23
2022-10-20T00:24:04.870Z,1014.23
2022-10-20T00:25:04.859Z,1014.23
2022-10-20T00:26:04.850Z,1014.14
2022-10-20T00:27:04.860Z,1014.10
2022-10-20T00:28:04.820Z,1014.09
2022-10-20T00:29:04.854Z,1014.03
2022-10-20T00:30:04.798Z,1013.99
2022-10-20T00:31:04.791Z,1014.01
2022-10-20T00:32:04.800Z,1014.05
2022-10-20T00:33:04.780Z,1013.96
2022-10-20T00:34:04.751Z,1014.02
2022-10-20T00:35:04.750Z,1014.01
2022-10-20T00:36:04.731Z,1014.04
2022-10-20T00:37:04.730Z,1013.96
2022-10-20T00:38:04.738Z,1013.95
2022-10-20T00:39:04.702Z,1013.88
2022-10-20T00:40:04.690Z,1013.89
2022-10-20T00:41:04.685Z,1013.92
2022-10-20T00:42:04.690Z,1013.89
2022-10-20T00:43:04.683Z,1013.82
2022-10-20T00:44:04.643Z,1013.80
2022-10-20T00:45:04.639Z,1013.78
2022-10-20T00:46:04.624Z,1013.73
2022-10-20T00:47:04.640Z,1013.75
2022-10-20T00:48:04.611Z,1013.78
2022-10-20T00:49:04.590Z,1013.79
2022-10-20T00:50:04.582Z,1013.73
2022-10-20T00:51:04.570Z,1013.80
2022-10-20T00:52:04.571Z,1013.79
2022-10-20T00:53:04.569Z,1013.81
2022-10-20T00:54:04.535Z,1013.78
2022-10-20T00:55:04.531Z,1013.77
2022-10-20T00:56:04.525Z,1013.78
2022-10-20T00:57:04.507Z,1013.78
2022-10-20T00:58:04.520Z,1013.80
2022-10-20T00:59:04.500Z,1013.79
2022-10-20T01:00:04.470Z,1013.81
2022-10-20T01:01:04.461Z,1013.73
2022-10-20T01:02:04.499Z,1013.73
2022-10-20T01:03:04.441Z,1013.73
2022-10-20T01:04:04.450Z,1013.70
2022-10-20T01:05:04.420Z,1013.64
2022-10-20T01:06:04.433Z,1013.59
2022-10-20T01:07:04.403Z,1013.53
2022-10-20T01:08:04.383Z,1013.53
2022-10-20T01:09:04.566Z,1013.48
2022-10-20T01:10:04.362Z,1013.50
2022-10-20T01:11:04.366Z,1013.47
2022-10-20T01:12:04.341Z,1013.49
2022-10-20T01:13:04.332Z,1013.51
2022-10-20T01:14:04.342Z,1013.49
2022-10-20T01:15:04.310Z,1013.45
2022-10-20T01:16:04.295Z,1013.39
2022-10-20T01:17:04.293Z,1013.38
2022-10-20T01:18:04.273Z,1013.37
2022-10-20T01:19:04.293Z,1013.34
2022-10-20T01:20:04.252Z,1013.36
2022-10-20T01:21:04.244Z,1013.34
2022-10-20T01:22:04.234Z,1013.31
2022-10-20T01:23:04.223Z,1013.23
2022-10-20T01:24:04.241Z,1013.20
2022-10-20T01:25:04.202Z,1013.19
2022-10-20T01:26:04.192Z,1013.18
2022-10-20T01:27:04.184Z,1013.15
2022-10-20T01:28:04.164Z,1013.09
2022-10-20T01:29:04.183Z,1013.15
2022-10-20T01:30:04.147Z,1013.13
2022-10-20T01:31:04.136Z,1013.05
2022-10-20T01:32:04.129Z,1013.01
2022-10-20T01:33:04.114Z,1013.01
2022-10-20T01:34:04.123Z,1012.94
2022-10-20T01:35:04.094Z,1012.92
2022-10-20T01:36:04.084Z,1012.93
2022-10-20T01:37:04.073Z,1013.01
2022-10-20T01:38:04.062Z,1012.98
2022-10-20T01:39:04.075Z,1012.95
2022-10-20T01:40:04.041Z,1012.99
2022-10-20T01:41:04.024Z,1012.97
2022-10-20T01:42:04.016Z,1012.93
2022-10-20T01:43:04.015Z,1012.91
2022-10-20T01:44:04.023Z,1012.93
2022-10-20T01:45:04.013Z,1012.85
2022-10-20T01:46:03.973Z,1012.84
2022-10-20T01:47:03.964Z,1012.89
2022-10-20T01:48:03.953Z,1012.79
2022-10-20T01:49:03.943Z,1012.76
2022-10-20T01:50:03.953Z,1012.76
2022-10-20T01:51:03.921Z,1012.74
2022-10-20T01:52:03.913Z,1012.74
2022-10-20T01:53:03.900Z,1012.70
2022-10-20T01:54:03.916Z,1012.71
2022-10-20T01:55:03.884Z,1012.74
2022-10-20T01:56:03.881Z,1012.73
2022-10-20T01:57:03.863Z,1012.73
2022-10-20T01:58:03.862Z,1012.73
2022-10-20T01:59:03.872Z,1012.70
2022-10-20T02:00:03.835Z,1012.63
2022-10-20T02:01:03.838Z,1012.71
2022-10-20T02:02:03.806Z,1012.71
2022-10-20T02:03:03.795Z,1012.70
2022-10-20T02:04:03.815Z,1012.69
2022-10-20T02:05:03.763Z,1012.71
2022-10-20T02:06:03.784Z,1012.65
2022-10-20T02:07:03.755Z,1012.71
2022-10-20T02:08:03.736Z,1012.70
2022-10-20T02:09:03.813Z,1012.66
2022-10-20T02:10:03.716Z,1012.64
2022-10-20T02:11:03.707Z,1012.59
2022-10-20T02:12:03.702Z,1012.61
2022-10-20T02:13:03.686Z,1012.58
2022-10-20T02:14:03.676Z,1012.59
2022-10-20T02:15:03.693Z,1012.73
2022-10-20T02:16:03.654Z,1012.68
2022-10-20T02:17:03.646Z,1012.70
2022-10-20T02:18:03.635Z,1012.65
2022-10-20T02:19:03.639Z,1012.64
2022-10-20T02:20:03.615Z,1012.65
2022-10-20T02:21:03.595Z,1012.62
2022-10-20T02:22:03.593Z,1012.60
2022-10-20T02:23:03.575Z,1012.61
2022-10-20T02:24:03.588Z,1012.56
2022-10-20T02:25:03.555Z,1012.58
2022-10-20T02:26:03.549Z,1012.46
2022-10-20T02:27:03.529Z,1012.47
2022-10-20T02:28:03.529Z,1012.46
2022-10-20T02:29:03.543Z,1012.48
2022-10-20T02:30:03.496Z,1012.44
2022-10-20T02:31:03.486Z,1012.44
2022-10-20T02:32:03.488Z,1012.40
2022-10-20T02:33:03.476Z,1012.39
2022-10-20T02:34:03.457Z,1012.33
2022-10-20T02:35:06.539Z,1012.34
2022-10-20T02:36:03.437Z,1012.23
2022-10-20T02:37:03.472Z,1012.25
2022-10-20T02:38:03.419Z,1012.20
2022-10-20T02:39:03.408Z,1012.13
2022-10-20T02:40:03.418Z,1012.12
2022-10-20T02:41:03.385Z,1012.09
2022-10-20T02:42:03.377Z,1012.13
2022-10-20T02:43:03.355Z,1012.07
2022-10-20T02:44:03.355Z,1012.00
2022-10-20T02:45:03.337Z,1012.06
2022-10-20T02:46:03.445Z,1012.01
2022-10-20T02:47:03.316Z,1011.99
2022-10-20T02:48:05.161Z,1012.03
2022-10-20T02:49:03.288Z,1012.03
2022-10-20T02:50:03.309Z,1012.02
2022-10-20T02:51:03.298Z,1012.00
2022-10-20T02:52:03.267Z,1012.00
2022-10-20T02:53:03.258Z,1011.93
2022-10-20T02:54:03.246Z,1011.92
2022-10-20T02:55:03.226Z,1011.91
2022-10-20T02:56:03.248Z,1011.91
2022-10-20T02:57:03.215Z,1011.86
2022-10-20T02:58:03.201Z,1011.80
2022-10-20T02:59:03.185Z,1011.80
2022-10-20T03:00:03.192Z,1011.81
2022-10-20T03:01:03.187Z,1011.74
2022-10-20T03:02:03.258Z,1011.70
2022-10-20T03:03:03.139Z,1011.65
2022-10-20T03:04:03.129Z,1011.67
2022-10-20T03:05:03.119Z,1011.66
2022-10-20T03:06:03.138Z,1011.60
2022-10-20T03:07:03.119Z,1011.64
2022-10-20T03:08:03.087Z,1011.62
2022-10-20T03:09:03.127Z,1011.61
2022-10-20T03:10:03.068Z,1011.64
2022-10-20T03:11:03.077Z,1011.57
2022-10-20T03:12:03.048Z,1011.67
2022-10-20T03:13:03.038Z,1011.68
2022-10-20T03:14:03.018Z,1011.74
2022-10-20T03:15:03.017Z,1011.57
2022-10-20T03:16:03.032Z,1011.60
2022-10-20T03:17:02.989Z,1011.64
2022-10-20T03:18:02.986Z,1011.61
2022-10-20T03:19:05.311Z,1011.56
2022-10-20T03:20:02.959Z,1011.55
2022-10-20T03:21:02.949Z,1011.57
2022-10-20T03:22:02.959Z,1011.61
2022-10-20T03:23:02.928Z,1011.56
2022-10-20T03:24:02.910Z,1011.52
2022-10-20T03:25:02.909Z,1011.51
2022-10-20T03:26:02.890Z,1011.58
2022-10-20T03:27:02.887Z,1011.53
2022-10-20T03:28:02.890Z,1011.52
2022-10-20T03:29:02.866Z,1011.51
2022-10-20T03:30:02.860Z,1011.47
2022-10-20T03:31:02.838Z,1011.56
2022-10-20T03:32:02.819Z,1011.50
2022-10-20T03:33:02.842Z,1011.51
2022-10-20T03:34:02.801Z,1011.46
2022-10-20T03:35:02.800Z,1011.51
2022-10-20T03:36:02.782Z,1011.46
2022-10-20T03:37:02.770Z,1011.46
2022-10-20T03:38:02.780Z,1011.41
2022-10-20T03:39:02.758Z,1011.37
2022-10-20T03:40:02.738Z,1011.38
2022-10-20T03:41:02.778Z,1011.38
2022-10-20T03:42:02.710Z,1011.32
2022-10-20T03:43:02.740Z,1011.30
2022-10-20T03:44:02.699Z,1011.42
2022-10-20T03:45:02.690Z,1011.42
2022-10-20T03:46:02.680Z,1011.39
2022-10-20T03:47:02.662Z,1011.35
2022-10-20T03:48:02.679Z,1011.32
2022-10-20T03:49:02.639Z,1011.42
2022-10-20T03:50:02.688Z,1011.36
2022-10-20T03:51:02.628Z,1011.35
2022-10-20T03:52:02.609Z,1011.35
2022-10-20T03:53:02.609Z,1011.32
2022-10-20T03:54:02.618Z,1011.30
2022-10-20T03:55:02.584Z,1011.35
2022-10-20T03:56:02.560Z,1011.32
2022-10-20T03:57:06.799Z,1011.28
2022-10-20T03:58:03.541Z,1011.29
2022-10-20T04:00:02.540Z,1011.27
2022-10-20T04:01:02.521Z,1011.25
2022-10-20T04:02:02.577Z,1011.22
2022-10-20T04:03:02.491Z,1011.21
2022-10-20T04:04:02.481Z,1011.17
2022-10-20T04:05:02.490Z,1011.18
2022-10-20T04:06:02.450Z,1011.14
2022-10-20T04:07:02.442Z,1011.13
2022-10-20T04:08:02.434Z,1011.13
2022-10-20T04:09:02.500Z,1011.13
2022-10-20T04:10:02.462Z,1011.13
2022-10-20T04:11:02.402Z,1011.08
2022-10-20T04:12:02.392Z,1011.02
2022-10-20T04:13:02.381Z,1011.05
2022-10-20T04:14:02.370Z,1011.03
2022-10-20T04:15:02.378Z,1011.03
2022-10-20T04:16:02.355Z,1010.95
2022-10-20T04:17:02.330Z,1010.94
2022-10-20T04:18:02.321Z,1010.95
2022-10-20T04:19:02.318Z,1010.88
2022-10-20T04:20:02.321Z,1010.88
2022-10-20T04:21:02.291Z,1010.90
2022-10-20T04:22:02.283Z,1010.89
2022-10-20T04:23:02.333Z,1010.92
2022-10-20T04:24:02.324Z,1010.91
2022-10-20T04:25:02.347Z,1010.80
2022-10-20T04:26:02.323Z,1010.84
2022-10-20T04:27:02.332Z,1010.80
2022-10-20T04:28:02.393Z,1010.83
2022-10-20T04:29:02.233Z,1010.76
2022-10-20T04:30:02.266Z,1010.81
2022-10-20T04:31:02.202Z,1010.73
2022-10-20T04:32:02.162Z,1010.69
2022-10-20T04:33:02.163Z,1010.71
2022-10-20T04:34:02.151Z,1010.66
2022-10-20T04:35:02.149Z,1010.64
2022-10-20T04:36:02.165Z,1010.57
2022-10-20T04:37:02.141Z,1010.60
2022-10-20T04:38:02.101Z,1010.58
2022-10-20T04:39:02.093Z,1010.49
2022-10-20T04:40:02.082Z,1010.51
2022-10-20T04:41:04.094Z,1010.52
2022-10-20T04:42:02.083Z,1010.50
2022-10-20T04:43:02.053Z,1010.49
2022-10-20T04:44:02.042Z,1010.52
2022-10-20T04:45:02.251Z,1010.50
2022-10-20T04:46:05.296Z,1010.55
2022-10-20T04:47:03.333Z,1010.50
2022-10-20T04:48:02.215Z,1010.50
2022-10-20T04:49:02.214Z,1010.52
2022-10-20T04:50:02.288Z,1010.53
2022-10-20T04:51:02.113Z,1010.51
2022-10-20T04:52:01.971Z,1010.50
2022-10-20T04:53:01.965Z,1010.47
2022-10-20T04:54:02.051Z,1010.43
2022-10-20T04:55:01.914Z,1010.41
2022-10-20T04:56:01.913Z,1010.35
2022-10-20T04:57:01.926Z,1010.36
2022-10-20T04:58:01.892Z,1010.33
2022-10-20T04:59:01.890Z,1010.31
2022-10-20T05:00:01.886Z,1010.33
2022-10-20T05:01:01.854Z,1010.35
2022-10-20T05:02:01.891Z,1010.34
2022-10-20T05:03:01.870Z,1010.33
2022-10-20T05:04:01.833Z,1010.26
2022-10-20T05:05:01.821Z,1010.22
2022-10-20T05:06:01.825Z,1010.23
2022-10-20T05:07:01.794Z,1010.23
2022-10-20T05:08:01.784Z,1010.23
2022-10-20T05:09:01.875Z,1010.25
2022-10-20T05:10:01.752Z,1010.28
2022-10-20T05:11:01.749Z,1010.25
2022-10-20T05:12:01.817Z,1010.20
2022-10-20T05:13:01.724Z,1010.27
2022-10-20T05:14:01.722Z,1010.29
2022-10-20T05:15:01.702Z,1010.30
2022-10-20T05:16:01.684Z,1010.33
2022-10-20T05:17:03.237Z,1010.27
2022-10-20T05:18:01.666Z,1010.26
2022-10-20T05:19:01.662Z,1010.25
2022-10-20T05:20:01.642Z,1010.27
2022-10-20T05:21:08.759Z,1010.21
2022-10-20T05:22:02.647Z,1010.20
2022-10-20T05:23:01.613Z,1010.16
2022-10-20T05:24:01.596Z,1010.11
2022-10-20T05:25:24.455Z,1010.05
2022-10-20T05:26:02.601Z,1010.08
2022-10-20T05:27:01.595Z,1010.02
2022-10-20T05:28:01.593Z,1009.93
2022-10-20T05:29:01.556Z,1009.97
2022-10-20T05:30:01.576Z,1009.93
2022-10-20T05:31:01.796Z,1009.91
2022-10-20T05:32:01.536Z,1009.87
2022-10-20T05:33:01.582Z,1009.87
2022-10-20T05:34:01.493Z,1009.85
2022-10-20T05:35:01.546Z,1009.87
2022-10-20T05:36:01.487Z,1009.91
2022-10-20T05:37:01.484Z,1009.92
2022-10-20T05:38:01.443Z,1009.87
2022-10-20T05:39:01.452Z,1009.83
2022-10-20T05:40:01.457Z,1009.79
2022-10-20T05:41:01.422Z,1009.74
2022-10-20T05:42:01.425Z,1009.71
2022-10-20T05:43:01.395Z,1009.67
2022-10-20T05:44:01.394Z,1009.69
2022-10-20T05:45:01.382Z,1009.68
2022-10-20T05:46:01.356Z,1009.69
2022-10-20T05:47:01.374Z,1009.62
2022-10-20T05:48:01.335Z,1009.61
2022-10-20T05:49:01.335Z,1009.56
2022-10-20T05:50:01.323Z,1009.56
2022-10-20T05:51:01.314Z,1009.55
2022-10-20T05:52:01.460Z,1009.58
2022-10-20T05:53:01.294Z,1009.54
2022-10-20T05:54:01.286Z,1009.59
2022-10-20T05:55:01.265Z,1009.62
2022-10-20T05:56:01.255Z,1009.57
2022-10-20T05:57:01.575Z,1009.60
2022-10-20T05:58:01.266Z,1009.58
2022-10-20T05:59:01.223Z,1009.58
2022-10-20T06:00:01.251Z,1009.53
2022-10-20T06:01:01.198Z,1009.45
2022-10-20T06:02:01.207Z,1009.48
2022-10-20T06:03:01.185Z,1009.43
2022-10-20T06:04:01.165Z,1009.40
2022-10-20T06:05:01.215Z,1009.40
2022-10-20T06:06:01.143Z,1009.37
2022-10-20T06:07:01.166Z,1009.36
2022-10-20T06:08:01.121Z,1009.39
2022-10-20T06:09:01.157Z,1009.34
2022-10-20T06:10:01.108Z,1009.35
2022-10-20T06:11:01.091Z,1009.39
2022-10-20T06:12:01.135Z,1009.40
2022-10-20T06:13:01.086Z,1009.38
2022-10-20T06:14:01.058Z,1009.40
2022-10-20T06:15:01.046Z,1009.36
2022-10-20T06:16:01.035Z,1009.34
2022-10-20T06:17:01.028Z,1009.38
2022-10-20T06:18:01.043Z,1009.35
2022-10-20T06:19:00.997Z,1009.34
2022-10-20T06:20:01.003Z,1009.37
2022-10-20T06:21:00.977Z,1009.32
2022-10-20T06:22:03.994Z,1009.39
2022-10-20T06:23:01.979Z,1009.31
2022-10-20T06:24:00.947Z,1009.23
2022-10-20T06:25:00.974Z,1009.32
2022-10-20T06:26:03.830Z,1009.36
2022-10-20T06:27:01.016Z,1009.31
2022-10-20T06:28:00.925Z,1009.37
2022-10-20T06:29:04.446Z,1009.32
2022-10-20T06:30:00.886Z,1009.26
2022-10-20T06:31:00.876Z,1009.31
2022-10-20T06:32:00.921Z,1009.30
2022-10-20T06:33:00.919Z,1009.32
2022-10-20T06:34:00.839Z,1009.31
2022-10-20T06:35:00.827Z,1009.29
2022-10-20T06:36:00.829Z,1009.24
2022-10-20T06:37:00.810Z,1009.24
2022-10-20T06:38:00.815Z,1009.25
2022-10-20T06:39:00.806Z,1009.26
2022-10-20T06:40:00.777Z,1009.25
2022-10-20T06:41:00.769Z,1009.21
2022-10-20T06:42:00.748Z,1009.24
2022-10-20T06:43:00.740Z,1009.24
2022-10-20T06:44:00.730Z,1009.26
2022-10-20T06:45:00.748Z,1009.26
2022-10-20T06:46:00.714Z,1009.25
2022-10-20T06:47:00.702Z,1009.21
2022-10-20T06:48:00.717Z,1009.25
2022-10-20T06:49:00.683Z,1009.19
2022-10-20T06:50:00.697Z,1009.19
2022-10-20T06:51:00.662Z,1009.21
2022-10-20T06:52:00.697Z,1009.15
2022-10-20T06:53:00.646Z,1009.14
2022-10-20T06:54:00.628Z,1009.09
2022-10-20T06:55:00.637Z,1009.08
2022-10-20T06:56:00.616Z,1009.11
2022-10-20T06:57:00.597Z,1009.12
2022-10-20T06:58:00.586Z,1009.15
2022-10-20T06:59:00.577Z,1009.19
2022-10-20T07:00:00.588Z,1009.17
2022-10-20T07:01:00.551Z,1009.12
2022-10-20T07:02:00.615Z,1009.11
2022-10-20T07:03:00.531Z,1009.07
2022-10-20T07:04:00.520Z,1009.06
2022-10-20T07:05:00.529Z,1009.05
2022-10-20T07:06:00.508Z,1009.05
2022-10-20T07:07:00.510Z,1009.08
2022-10-20T07:08:00.481Z,1009.11
2022-10-20T07:09:00.513Z,1009.10
2022-10-20T07:10:00.478Z,1009.07
2022-10-20T07:11:00.449Z,1009.07
2022-10-20T07:12:00.439Z,1009.02
2022-10-20T07:13:00.447Z,1008.99
2022-10-20T07:14:00.417Z,1009.01
2022-10-20T07:15:00.428Z,1008.98
2022-10-20T07:16:00.392Z,1008.99
2022-10-20T07:17:00.401Z,1009.00
2022-10-20T07:18:00.370Z,1008.98
2022-10-20T07:19:00.358Z,1008.98
2022-10-20T07:20:00.379Z,1008.97
2022-10-20T07:21:00.339Z,1009.08
2022-10-20T07:22:00.330Z,1009.08
2022-10-20T07:23:00.318Z,1009.07
2022-10-20T07:24:00.310Z,1009.08
2022-10-20T07:25:00.311Z,1009.16
2022-10-20T07:26:00.291Z,1009.20
2022-10-20T07:27:00.280Z,1009.22
2022-10-20T07:28:00.267Z,1009.21
2022-10-20T07:29:00.249Z,1009.20
2022-10-20T07:30:00.260Z,1009.18
2022-10-20T07:31:00.232Z,1009.21
2022-10-20T07:32:02.022Z,1009.25
2022-10-20T07:33:00.210Z,1009.25
2022-10-20T07:34:13.273Z,1009.22
2022-10-20T07:35:01.210Z,1009.20
2022-10-20T07:36:00.182Z,1009.19
2022-10-20T07:37:00.180Z,1009.17
2022-10-20T07:38:00.160Z,1009.16
2022-10-20T07:39:00.151Z,1009.08
2022-10-20T07:40:00.162Z,1009.12
2022-10-20T07:41:01.477Z,1009.14
2022-10-20T07:42:00.121Z,1009.16
2022-10-20T07:43:00.110Z,1009.17
2022-10-20T07:44:00.096Z,1009.24
2022-10-20T07:45:00.087Z,1009.16
2022-10-20T07:46:00.113Z,1009.17
2022-10-20T07:47:00.063Z,1009.14
2022-10-20T07:48:00.070Z,1009.14
2022-10-20T07:49:23.899Z,1009.11
2022-10-20T07:50:01.034Z,1009.13
2022-10-20T07:51:00.023Z,1009.09
2022-10-20T07:52:00.042Z,1009.07
2022-10-20T07:52:59.992Z,1009.05
2022-10-20T07:54:00.746Z,1009.06
2022-10-20T07:55:12.385Z,1009.08
2022-10-20T07:56:00.960Z,1009.02
2022-10-20T07:56:59.964Z,1008.98
2022-10-20T07:57:59.973Z,1009.01
2022-10-20T07:58:59.923Z,1009.01
2022-10-20T07:59:59.935Z,1008.99
2022-10-20T08:00:59.904Z,1008.96
2022-10-20T08:02:00.393Z,1008.93
2022-10-20T08:02:59.881Z,1008.89
2022-10-20T08:03:59.875Z,1008.82
2022-10-20T08:04:59.883Z,1008.85
2022-10-20T08:05:59.851Z,1008.89
2022-10-20T08:06:59.834Z,1008.86
2022-10-20T08:07:59.846Z,1008.87
2022-10-20T08:08:59.915Z,1008.80
2022-10-20T08:09:59.827Z,1008.78
2022-10-20T08:10:59.794Z,1008.78
2022-10-20T08:11:59.783Z,1008.78
2022-10-20T08:12:59.791Z,1008.80
2022-10-20T08:13:59.761Z,1008.80
2022-10-20T08:14:59.756Z,1008.78
2022-10-20T08:16:03.837Z,1008.76
2022-10-20T08:17:01.557Z,1008.72
2022-10-20T08:17:59.714Z,1008.79
2022-10-20T08:19:00.705Z,1008.76
2022-10-20T08:20:02.838Z,1008.70
2022-10-20T08:20:59.676Z,1008.66
2022-10-20T08:21:59.676Z,1008.65
2022-10-20T08:22:59.658Z,1008.69
2022-10-20T08:23:59.660Z,1008.70
2022-10-20T08:24:59.657Z,1008.70
2022-10-20T08:25:59.632Z,1008.62
2022-10-20T08:26:59.637Z,1008.67
2022-10-20T08:27:59.670Z,1008.66
2022-10-20T08:28:59.595Z,1008.60
2022-10-20T08:30:06.282Z,1008.67
2022-10-20T08:31:00.588Z,1008.62
2022-10-20T08:31:59.566Z,1008.68
2022-10-20T08:32:59.605Z,1008.64
2022-10-20T08:33:59.538Z,1008.64
2022-10-20T08:34:59.787Z,1008.64
2022-10-20T08:35:59.525Z,1008.68
2022-10-20T08:36:59.507Z,1008.66
2022-10-20T08:37:59.499Z,1008.72
2022-10-20T08:39:03.459Z,1008.70
2022-10-20T08:40:00.501Z,1008.71
2022-10-20T08:40:59.469Z,1008.74
2022-10-20T08:42:14.712Z,1008.67
2022-10-20T08:43:00.439Z,1008.66
2022-10-20T08:43:59.435Z,1008.61
2022-10-20T08:44:59.428Z,1008.51
2022-10-20T08:45:59.449Z,1008.50
2022-10-20T08:46:59.403Z,1008.42
2022-10-20T08:47:59.396Z,1008.50
2022-10-20T08:48:59.379Z,1008.53
2022-10-20T08:49:59.371Z,1008.40
2022-10-20T08:50:59.360Z,1008.38
2022-10-20T08:51:59.369Z,1008.39
2022-10-20T08:52:59.360Z,1008.42
2022-10-20T08:53:59.327Z,1008.47
2022-10-20T08:54:59.331Z,1008.41
2022-10-20T08:55:59.321Z,1008.36
2022-10-20T08:56:59.298Z,1008.36
2022-10-20T08:57:59.301Z,1008.33
2022-10-20T08:58:59.269Z,1008.32
2022-10-20T08:59:59.270Z,1008.35
2022-10-20T09:00:59.249Z,1008.33
2022-10-20T09:01:59.370Z,1008.29
2022-10-20T09:02:59.242Z,1008.23
2022-10-20T09:03:59.226Z,1008.21
2022-10-20T09:04:59.200Z,1008.18
2022-10-20T09:05:59.195Z,1008.19
2022-10-20T09:06:59.183Z,1008.23
2022-10-20T09:07:59.210Z,1008.22
2022-10-20T09:08:59.193Z,1008.24
2022-10-20T09:09:59.156Z,1008.22
2022-10-20T09:10:59.140Z,1008.17
2022-10-20T09:11:59.132Z,1008.20
2022-10-20T09:12:59.121Z,1008.19
2022-10-20T09:13:59.132Z,1008.19
2022-10-20T09:14:59.099Z,1008.13
2022-10-20T09:15:59.084Z,1008.09
2022-10-20T09:17:00.521Z,1008.10
2022-10-20T09:17:59.062Z,1008.08
2022-10-20T09:18:59.053Z,1008.13
2022-10-20T09:19:59.061Z,1008.06
2022-10-20T09:20:59.024Z,1008.03
2022-10-20T09:21:59.022Z,1008.04
2022-10-20T09:23:01.409Z,1007.98
2022-10-20T09:24:00.011Z,1007.97
2022-10-20T09:24:59.003Z,1007.95
2022-10-20T09:25:58.977Z,1007.95
2022-10-20T09:27:00.116Z,1007.98
2022-10-20T09:27:58.983Z,1007.96
2022-10-20T09:29:12.577Z,1007.99
2022-10-20T09:29:59.957Z,1007.94
2022-10-20T09:30:58.916Z,1007.92
2022-10-20T09:32:01.416Z,1007.95
2022-10-20T09:33:00.100Z,1008.00
2022-10-20T09:33:58.887Z,1008.03
2022-10-20T09:34:58.894Z,1008.04
2022-10-20T09:35:58.867Z,1008.06
2022-10-20T09:36:58.847Z,1007.97
2022-10-20T09:37:58.847Z,1007.92
2022-10-20T09:38:58.826Z,1007.88
2022-10-20T09:39:58.844Z,1007.96
2022-10-20T09:40:58.805Z,1007.96
2022-10-20T09:41:58.873Z,1007.98
2022-10-20T09:42:58.787Z,1007.96
2022-10-20T09:43:58.780Z,1007.95
2022-10-20T09:44:58.768Z,1007.94
2022-10-20T09:45:58.757Z,1007.87
2022-10-20T09:46:58.767Z,1007.92
2022-10-20T09:47:58.735Z,1007.92
2022-10-20T09:48:58.716Z,1007.88
2022-10-20T09:50:01.176Z,1007.87
2022-10-20T09:50:58.752Z,1007.84
2022-10-20T09:51:58.712Z,1007.82
2022-10-20T09:52:58.690Z,1007.77
2022-10-20T09:53:58.673Z,1007.83
2022-10-20T09:54:58.648Z,1007.80
2022-10-20T09:55:58.640Z,1007.75
2022-10-20T09:56:58.662Z,1007.72
2022-10-20T09:57:58.619Z,1007.67
2022-10-20T09:58:58.611Z,1007.69
2022-10-20T10:00:04.522Z,1007.69
2022-10-20T10:00:59.621Z,1007.67
2022-10-20T10:01:58.581Z,1007.63
2022-10-20T10:02:58.591Z,1007.59
2022-10-20T10:03:58.560Z,1007.60
2022-10-20T10:04:58.541Z,1007.59
2022-10-20T10:05:58.531Z,1007.57
2022-10-20T10:06:58.523Z,1007.58
2022-10-20T10:07:58.510Z,1007.51
2022-10-20T10:08:58.585Z,1007.55
2022-10-20T10:10:00.350Z,1007.58
2022-10-20T10:10:58.480Z,1007.62
2022-10-20T10:11:58.473Z,1007.59
2022-10-20T10:12:58.481Z,1007.57
2022-10-20T10:13:58.474Z,1007.55
2022-10-20T10:14:58.432Z,1007.45
2022-10-20T10:15:58.423Z,1007.45
2022-10-20T10:16:58.413Z,1007.50
2022-10-20T10:17:58.403Z,1007.51
2022-10-20T10:18:58.392Z,1007.44
2022-10-20T10:19:58.404Z,1007.45
2022-10-20T10:20:58.393Z,1007.46
2022-10-20T10:21:58.354Z,1007.43
2022-10-20T10:22:58.346Z,1007.37
2022-10-20T10:23:58.336Z,1007.34
2022-10-20T10:24:58.326Z,1007.33
2022-10-20T10:26:02.056Z,1007.30
2022-10-20T10:26:59.326Z,1007.31
2022-10-20T10:27:58.286Z,1007.22
2022-10-20T10:28:58.377Z,1007.28
2022-10-20T10:29:58.266Z,1007.29
2022-10-20T10:30:58.265Z,1007.24
2022-10-20T10:31:58.267Z,1007.28
2022-10-20T10:32:58.263Z,1007.27
2022-10-20T10:33:58.226Z,1007.24
2022-10-20T10:34:58.226Z,1007.24
2022-10-20T10:35:58.236Z,1007.18
2022-10-20T10:36:58.303Z,1007.15
2022-10-20T10:37:58.358Z,1007.17
2022-10-20T10:38:58.334Z,1007.14
2022-10-20T10:39:58.303Z,1007.12
2022-10-20T10:40:58.359Z,1007.14
2022-10-20T10:42:58.217Z,1007.04
2022-10-20T10:43:58.166Z,1007.07
2022-10-20T10:44:58.167Z,1007.10
2022-10-20T10:45:58.168Z,1007.10
2022-10-20T10:46:58.193Z,1007.11
2022-10-20T10:47:58.086Z,1007.15
2022-10-20T10:48:58.063Z,1007.15
2022-10-20T10:49:58.050Z,1007.13
2022-10-20T10:50:58.119Z,1007.19
2022-10-20T10:51:58.050Z,1007.20
2022-10-20T10:52:58.020Z,1007.19
2022-10-20T10:53:58.098Z,1007.16
2022-10-20T10:54:58.001Z,1007.09
2022-10-20T10:55:58.099Z,1007.11
2022-10-20T10:56:58.058Z,1007.05
2022-10-20T10:57:57.993Z,1007.04
2022-10-20T10:58:57.955Z,1006.98
2022-10-20T10:59:57.939Z,1007.02
2022-10-20T11:00:57.978Z,1007.06
2022-10-20T11:01:57.921Z,1007.02
2022-10-20T11:02:58.091Z,1007.01
2022-10-20T11:03:58.157Z,1007.03
2022-10-20T11:04:57.884Z,1007.10
2022-10-20T11:05:57.872Z,1007.01
2022-10-20T11:06:58.268Z,1007.02
2022-10-20T11:07:57.883Z,1007.08
2022-10-20T11:08:57.962Z,1007.11
2022-10-20T11:09:57.832Z,1007.12
2022-10-20T11:10:57.827Z,1007.07
2022-10-20T11:11:57.812Z,1007.11
2022-10-20T11:12:57.824Z,1007.07
2022-10-20T11:13:57.805Z,1007.05
2022-10-20T11:14:57.775Z,1007.03
2022-10-20T11:15:57.763Z,1006.98
2022-10-20T11:16:57.754Z,1006.97
2022-10-20T11:17:57.765Z,1007.03
2022-10-20T11:18:57.757Z,1007.04
2022-10-20T11:19:57.727Z,1007.07
2022-10-20T11:20:57.715Z,1007.06
2022-10-20T11:21:57.705Z,1007.07
2022-10-20T11:22:57.716Z,1007.09
2022-10-20T11:23:57.706Z,1007.04
2022-10-20T11:24:57.667Z,1007.04
2022-10-20T11:25:57.658Z,1007.05
2022-10-20T11:26:57.646Z,1007.07
2022-10-20T11:27:57.639Z,1007.01
2022-10-20T11:28:57.627Z,1007.01
2022-10-20T11:29:57.684Z,1007.02
2022-10-20T11:30:57.644Z,1006.99
2022-10-20T11:31:57.589Z,1006.98
2022-10-20T11:32:57.578Z,1007.02
2022-10-20T11:33:57.569Z,1007.00
2022-10-20T11:34:57.583Z,1007.02
2022-10-20T11:35:58.328Z,1006.99
2022-10-20T11:36:57.537Z,1007.00
2022-10-20T11:37:57.528Z,1007.04
2022-10-20T11:38:57.560Z,1007.02
2022-10-20T11:39:57.529Z,1007.09
2022-10-20T11:40:57.491Z,1007.08
2022-10-20T11:41:57.480Z,1007.13
2022-10-20T11:42:57.473Z,1007.06
2022-10-20T11:43:57.481Z,1007.10
2022-10-20T11:44:57.469Z,1007.06
2022-10-20T11:45:57.432Z,1007.05
2022-10-20T11:46:57.428Z,1007.05
2022-10-20T11:47:57.411Z,1007.06
2022-10-20T11:49:00.322Z,1007.10
2022-10-20T11:49:58.410Z,1007.09
2022-10-20T11:50:57.450Z,1007.08
2022-10-20T11:51:57.407Z,1007.05
2022-10-20T11:52:57.362Z,1007.08
2022-10-20T11:53:57.349Z,1007.09
2022-10-20T11:54:57.371Z,1007.06
2022-10-20T11:55:57.322Z,1007.03
2022-10-20T11:56:57.323Z,1007.06
2022-10-20T11:57:59.056Z,1007.08
2022-10-20T11:58:57.294Z,1007.08
2022-10-20T11:59:57.303Z,1007.03
2022-10-20T12:00:59.555Z,1006.98
2022-10-20T12:01:57.483Z,1006.95
2022-10-20T12:02:57.253Z,1006.98
2022-10-20T12:03:57.244Z,1006.95
2022-10-20T12:04:57.257Z,1006.95
2022-10-20T12:05:57.227Z,1006.95
2022-10-20T12:06:57.213Z,1006.93